sensor_id;sensor_type;location;lat;lon;timestamp;P1;durP1;ratioP1;P2;durP2;ratioP2
9888;SDS011;4983;42.112;24.738;2023-02-28T00:02:23;20.20;;;15.40;;
9888;SDS011;4983;42.112;24.738;2023-02-28T00:04:51;17.60;;;11.00;;
9888;SDS011;4983;42.112;24.738;2023-02-28T00:07:26;20.93;;;10.63;;
9888;SDS011;4983;42.112;24.738;2023-02-28T00:09:53;19.50;;;10.23;;
9888;SDS011;4983;42.112;24.738;2023-02-28T00:12:19;18.03;;;10.40;;
9888;SDS011;4983;42.112;24.738;2023-02-28T00:14:46;16.57;;;10.63;;
9888;SDS011;4983;42.112;24.738;2023-02-28T00:17:13;20.43;;;10.47;;
9888;SDS011;4983;42.112;24.738;2023-02-28T00:19:40;17.50;;;10.20;;
9888;SDS011;4983;42.112;24.738;2023-02-28T00:22:08;24.60;;;12.73;;
9888;SDS011;4983;42.112;24.738;2023-02-28T00:24:35;22.57;;;12.73;;
9888;SDS011;4983;42.112;24.738;2023-02-28T00:27:02;20.03;;;11.97;;
9888;SDS011;4983;42.112;24.738;2023-02-28T00:29:29;20.00;;;11.20;;
9888;SDS011;4983;42.112;24.738;2023-02-28T00:31:56;22.53;;;11.30;;
9888;SDS011;4983;42.112;24.738;2023-02-28T00:34:23;18.17;;;11.57;;
9888;SDS011;4983;42.112;24.738;2023-02-28T00:36:52;22.37;;;10.87;;
9888;SDS011;4983;42.112;24.738;2023-02-28T00:39:21;19.00;;;10.70;;
9888;SDS011;4983;42.112;24.738;2023-02-28T00:41:49;19.47;;;10.93;;
9888;SDS011;4983;42.112;24.738;2023-02-28T00:44:17;21.33;;;11.10;;
9888;SDS011;4983;42.112;24.738;2023-02-28T00:46:48;25.00;;;14.53;;
9888;SDS011;4983;42.112;24.738;2023-02-28T00:49:14;24.83;;;22.10;;
9888;SDS011;4983;42.112;24.738;2023-02-28T00:51:41;25.90;;;21.00;;
9888;SDS011;4983;42.112;24.738;2023-02-28T00:54:10;21.73;;;16.30;;
9888;SDS011;4983;42.112;24.738;2023-02-28T00:56:38;22.73;;;13.60;;
9888;SDS011;4983;42.112;24.738;2023-02-28T00:59:05;23.23;;;14.30;;
9888;SDS011;4983;42.112;24.738;2023-02-28T01:01:31;20.27;;;11.97;;
9888;SDS011;4983;42.112;24.738;2023-02-28T01:03:58;19.53;;;11.33;;
9888;SDS011;4983;42.112;24.738;2023-02-28T01:06:25;20.33;;;9.80;;
9888;SDS011;4983;42.112;24.738;2023-02-28T01:08:53;18.30;;;9.73;;
9888;SDS011;4983;42.112;24.738;2023-02-28T01:11:19;17.50;;;9.77;;
9888;SDS011;4983;42.112;24.738;2023-02-28T01:13:48;15.50;;;9.37;;
9888;SDS011;4983;42.112;24.738;2023-02-28T01:16:14;17.50;;;9.30;;
9888;SDS011;4983;42.112;24.738;2023-02-28T01:18:41;17.53;;;9.13;;
9888;SDS011;4983;42.112;24.738;2023-02-28T01:21:08;22.03;;;9.43;;
9888;SDS011;4983;42.112;24.738;2023-02-28T01:23:35;18.73;;;9.73;;
9888;SDS011;4983;42.112;24.738;2023-02-28T01:26:05;18.97;;;8.80;;
9888;SDS011;4983;42.112;24.738;2023-02-28T01:28:32;19.90;;;9.30;;
9888;SDS011;4983;42.112;24.738;2023-02-28T01:31:00;28.50;;;10.53;;
9888;SDS011;4983;42.112;24.738;2023-02-28T01:33:27;22.87;;;9.30;;
9888;SDS011;4983;42.112;24.738;2023-02-28T01:35:57;23.13;;;8.70;;
9888;SDS011;4983;42.112;24.738;2023-02-28T01:38:24;17.40;;;8.97;;
9888;SDS011;4983;42.112;24.738;2023-02-28T01:40:50;19.33;;;9.43;;
9888;SDS011;4983;42.112;24.738;2023-02-28T01:43:20;18.67;;;10.27;;
9888;SDS011;4983;42.112;24.738;2023-02-28T01:45:46;21.10;;;10.20;;
9888;SDS011;4983;42.112;24.738;2023-02-28T01:48:14;28.03;;;10.50;;
9888;SDS011;4983;42.112;24.738;2023-02-28T01:50:42;24.80;;;10.27;;
9888;SDS011;4983;42.112;24.738;2023-02-28T01:53:11;19.70;;;9.10;;
9888;SDS011;4983;42.112;24.738;2023-02-28T01:55:40;20.30;;;9.50;;
9888;SDS011;4983;42.112;24.738;2023-02-28T01:58:07;24.43;;;10.13;;
9888;SDS011;4983;42.112;24.738;2023-02-28T02:00:35;24.53;;;9.83;;
9888;SDS011;4983;42.112;24.738;2023-02-28T02:03:05;25.50;;;10.17;;
9888;SDS011;4983;42.112;24.738;2023-02-28T02:05:33;19.83;;;10.40;;
9888;SDS011;4983;42.112;24.738;2023-02-28T02:08:03;25.20;;;10.50;;
9888;SDS011;4983;42.112;24.738;2023-02-28T02:10:31;27.40;;;10.43;;
9888;SDS011;4983;42.112;24.738;2023-02-28T02:15:44;20.73;;;9.87;;
9888;SDS011;4983;42.112;24.738;2023-02-28T02:18:15;18.47;;;9.70;;
9888;SDS011;4983;42.112;24.738;2023-02-28T02:21:02;23.33;;;10.73;;
9888;SDS011;4983;42.112;24.738;2023-02-28T02:26:34;24.40;;;11.30;;
9888;SDS011;4983;42.112;24.738;2023-02-28T02:29:12;20.77;;;11.00;;
9888;SDS011;4983;42.112;24.738;2023-02-28T02:31:53;27.23;;;11.20;;
9888;SDS011;4983;42.112;24.738;2023-02-28T02:34:32;20.80;;;11.27;;
9888;SDS011;4983;42.112;24.738;2023-02-28T02:37:08;21.87;;;10.87;;
9888;SDS011;4983;42.112;24.738;2023-02-28T02:39:39;25.17;;;11.57;;
9888;SDS011;4983;42.112;24.738;2023-02-28T02:42:09;23.83;;;11.83;;
9888;SDS011;4983;42.112;24.738;2023-02-28T02:44:39;20.80;;;11.33;;
9888;SDS011;4983;42.112;24.738;2023-02-28T02:47:10;26.50;;;10.50;;
9888;SDS011;4983;42.112;24.738;2023-02-28T02:49:39;22.83;;;10.63;;
9888;SDS011;4983;42.112;24.738;2023-02-28T02:52:08;22.17;;;10.77;;
9888;SDS011;4983;42.112;24.738;2023-02-28T02:54:37;20.57;;;10.40;;
9888;SDS011;4983;42.112;24.738;2023-02-28T02:57:05;24.97;;;10.93;;
9888;SDS011;4983;42.112;24.738;2023-02-28T02:59:33;18.37;;;10.33;;
9888;SDS011;4983;42.112;24.738;2023-02-28T03:02:02;19.70;;;10.73;;
9888;SDS011;4983;42.112;24.738;2023-02-28T03:04:31;16.97;;;10.47;;
9888;SDS011;4983;42.112;24.738;2023-02-28T03:07:00;17.93;;;9.83;;
9888;SDS011;4983;42.112;24.738;2023-02-28T03:09:26;20.47;;;10.47;;
9888;SDS011;4983;42.112;24.738;2023-02-28T03:11:54;20.37;;;11.77;;
9888;SDS011;4983;42.112;24.738;2023-02-28T03:14:25;20.20;;;10.80;;
9888;SDS011;4983;42.112;24.738;2023-02-28T03:17:02;20.40;;;11.83;;
9888;SDS011;4983;42.112;24.738;2023-02-28T03:19:47;16.67;;;11.13;;
9888;SDS011;4983;42.112;24.738;2023-02-28T03:22:18;18.70;;;11.03;;
9888;SDS011;4983;42.112;24.738;2023-02-28T03:24:47;18.47;;;11.60;;
9888;SDS011;4983;42.112;24.738;2023-02-28T03:27:16;24.20;;;12.00;;
9888;SDS011;4983;42.112;24.738;2023-02-28T03:29:47;20.03;;;11.60;;
9888;SDS011;4983;42.112;24.738;2023-02-28T03:32:17;17.23;;;11.73;;
9888;SDS011;4983;42.112;24.738;2023-02-28T03:34:48;16.33;;;11.87;;
9888;SDS011;4983;42.112;24.738;2023-02-28T03:37:19;20.93;;;12.07;;
9888;SDS011;4983;42.112;24.738;2023-02-28T03:39:47;21.13;;;12.80;;
9888;SDS011;4983;42.112;24.738;2023-02-28T03:42:15;19.73;;;13.70;;
9888;SDS011;4983;42.112;24.738;2023-02-28T03:44:45;19.20;;;13.90;;
9888;SDS011;4983;42.112;24.738;2023-02-28T03:47:15;21.27;;;14.07;;
9888;SDS011;4983;42.112;24.738;2023-02-28T03:49:44;22.57;;;13.97;;
9888;SDS011;4983;42.112;24.738;2023-02-28T03:52:13;22.77;;;14.40;;
9888;SDS011;4983;42.112;24.738;2023-02-28T03:54:43;19.57;;;13.07;;
9888;SDS011;4983;42.112;24.738;2023-02-28T03:57:11;21.93;;;13.10;;
9888;SDS011;4983;42.112;24.738;2023-02-28T03:59:39;19.73;;;13.47;;
9888;SDS011;4983;42.112;24.738;2023-02-28T04:02:08;23.00;;;12.93;;
9888;SDS011;4983;42.112;24.738;2023-02-28T04:04:35;19.50;;;13.13;;
9888;SDS011;4983;42.112;24.738;2023-02-28T04:07:02;17.43;;;12.33;;
9888;SDS011;4983;42.112;24.738;2023-02-28T04:09:29;17.67;;;12.67;;
9888;SDS011;4983;42.112;24.738;2023-02-28T04:11:58;17.73;;;11.67;;
9888;SDS011;4983;42.112;24.738;2023-02-28T04:14:25;22.07;;;12.53;;
9888;SDS011;4983;42.112;24.738;2023-02-28T04:16:51;18.27;;;12.07;;
9888;SDS011;4983;42.112;24.738;2023-02-28T04:19:19;19.53;;;13.20;;
9888;SDS011;4983;42.112;24.738;2023-02-28T04:21:47;18.93;;;12.83;;
9888;SDS011;4983;42.112;24.738;2023-02-28T04:24:14;18.10;;;12.80;;
9888;SDS011;4983;42.112;24.738;2023-02-28T04:26:42;18.83;;;12.93;;
9888;SDS011;4983;42.112;24.738;2023-02-28T04:29:11;20.17;;;13.03;;
9888;SDS011;4983;42.112;24.738;2023-02-28T04:31:39;22.67;;;12.53;;
9888;SDS011;4983;42.112;24.738;2023-02-28T04:34:05;21.43;;;12.13;;
9888;SDS011;4983;42.112;24.738;2023-02-28T04:36:32;20.83;;;12.17;;
9888;SDS011;4983;42.112;24.738;2023-02-28T04:38:59;18.77;;;12.80;;
9888;SDS011;4983;42.112;24.738;2023-02-28T04:41:26;24.17;;;13.13;;
9888;SDS011;4983;42.112;24.738;2023-02-28T04:43:53;14.93;;;12.60;;
9888;SDS011;4983;42.112;24.738;2023-02-28T04:46:22;17.57;;;12.47;;
9888;SDS011;4983;42.112;24.738;2023-02-28T04:48:49;15.63;;;13.10;;
9888;SDS011;4983;42.112;24.738;2023-02-28T04:51:17;15.20;;;12.40;;
9888;SDS011;4983;42.112;24.738;2023-02-28T04:53:44;21.70;;;12.33;;
9888;SDS011;4983;42.112;24.738;2023-02-28T04:56:11;16.13;;;12.40;;
9888;SDS011;4983;42.112;24.738;2023-02-28T04:58:38;19.23;;;12.93;;
9888;SDS011;4983;42.112;24.738;2023-02-28T05:01:06;20.67;;;12.80;;
9888;SDS011;4983;42.112;24.738;2023-02-28T05:03:39;20.13;;;12.70;;
9888;SDS011;4983;42.112;24.738;2023-02-28T05:06:06;19.73;;;12.40;;
9888;SDS011;4983;42.112;24.738;2023-02-28T05:08:33;22.80;;;12.90;;
9888;SDS011;4983;42.112;24.738;2023-02-28T05:11:00;19.73;;;14.07;;
9888;SDS011;4983;42.112;24.738;2023-02-28T05:13:27;20.27;;;13.47;;
9888;SDS011;4983;42.112;24.738;2023-02-28T05:15:54;25.70;;;13.23;;
9888;SDS011;4983;42.112;24.738;2023-02-28T05:18:21;16.53;;;12.77;;
9888;SDS011;4983;42.112;24.738;2023-02-28T05:20:49;22.97;;;12.87;;
9888;SDS011;4983;42.112;24.738;2023-02-28T05:23:16;17.37;;;12.97;;
9888;SDS011;4983;42.112;24.738;2023-02-28T05:25:44;18.17;;;13.67;;
9888;SDS011;4983;42.112;24.738;2023-02-28T05:28:11;17.77;;;12.50;;
9888;SDS011;4983;42.112;24.738;2023-02-28T05:30:38;20.67;;;12.83;;
9888;SDS011;4983;42.112;24.738;2023-02-28T05:33:04;22.93;;;14.33;;
9888;SDS011;4983;42.112;24.738;2023-02-28T05:35:31;22.20;;;14.10;;
9888;SDS011;4983;42.112;24.738;2023-02-28T05:37:59;20.50;;;13.10;;
9888;SDS011;4983;42.112;24.738;2023-02-28T05:40:26;17.50;;;12.80;;
9888;SDS011;4983;42.112;24.738;2023-02-28T05:42:53;17.03;;;13.10;;
9888;SDS011;4983;42.112;24.738;2023-02-28T05:45:20;25.27;;;14.33;;
9888;SDS011;4983;42.112;24.738;2023-02-28T05:47:47;22.37;;;14.47;;
9888;SDS011;4983;42.112;24.738;2023-02-28T05:50:14;19.07;;;14.63;;
9888;SDS011;4983;42.112;24.738;2023-02-28T05:52:42;20.90;;;14.73;;
9888;SDS011;4983;42.112;24.738;2023-02-28T05:55:10;18.53;;;14.47;;
9888;SDS011;4983;42.112;24.738;2023-02-28T05:57:37;19.33;;;14.13;;
9888;SDS011;4983;42.112;24.738;2023-02-28T06:00:04;19.90;;;14.23;;
9888;SDS011;4983;42.112;24.738;2023-02-28T06:02:31;20.87;;;14.73;;
9888;SDS011;4983;42.112;24.738;2023-02-28T06:04:58;18.30;;;13.70;;
9888;SDS011;4983;42.112;24.738;2023-02-28T06:07:26;23.50;;;14.83;;
9888;SDS011;4983;42.112;24.738;2023-02-28T06:09:53;16.97;;;14.20;;
9888;SDS011;4983;42.112;24.738;2023-02-28T06:12:21;23.93;;;15.23;;
9888;SDS011;4983;42.112;24.738;2023-02-28T06:14:48;21.80;;;15.37;;
9888;SDS011;4983;42.112;24.738;2023-02-28T06:17:15;21.50;;;18.45;;
9888;SDS011;4983;42.112;24.738;2023-02-28T06:19:41;24.90;;;16.60;;
9888;SDS011;4983;42.112;24.738;2023-02-28T06:22:08;22.87;;;15.93;;
9888;SDS011;4983;42.112;24.738;2023-02-28T06:24:35;30.60;;;15.10;;
9888;SDS011;4983;42.112;24.738;2023-02-28T06:27:02;26.27;;;15.40;;
9888;SDS011;4983;42.112;24.738;2023-02-28T06:29:32;19.27;;;14.90;;
9888;SDS011;4983;42.112;24.738;2023-02-28T06:31:59;33.47;;;16.07;;
9888;SDS011;4983;42.112;24.738;2023-02-28T06:34:25;21.50;;;14.40;;
9888;SDS011;4983;42.112;24.738;2023-02-28T06:36:52;26.70;;;14.23;;
9888;SDS011;4983;42.112;24.738;2023-02-28T06:39:19;20.63;;;14.00;;
9888;SDS011;4983;42.112;24.738;2023-02-28T06:41:46;19.07;;;14.10;;
9888;SDS011;4983;42.112;24.738;2023-02-28T06:44:13;19.07;;;14.17;;
9888;SDS011;4983;42.112;24.738;2023-02-28T06:46:42;38.50;;;15.57;;
9888;SDS011;4983;42.112;24.738;2023-02-28T06:49:10;22.07;;;15.23;;
9888;SDS011;4983;42.112;24.738;2023-02-28T06:51:38;28.87;;;16.27;;
9888;SDS011;4983;42.112;24.738;2023-02-28T06:54:06;23.97;;;15.37;;
9888;SDS011;4983;42.112;24.738;2023-02-28T06:56:34;24.70;;;15.20;;
9888;SDS011;4983;42.112;24.738;2023-02-28T06:59:01;27.03;;;16.87;;
9888;SDS011;4983;42.112;24.738;2023-02-28T07:01:28;68.13;;;56.20;;
9888;SDS011;4983;42.112;24.738;2023-02-28T07:03:58;18.00;;;14.97;;
9888;SDS011;4983;42.112;24.738;2023-02-28T07:06:25;37.60;;;16.47;;
9888;SDS011;4983;42.112;24.738;2023-02-28T07:08:52;25.33;;;14.97;;
9888;SDS011;4983;42.112;24.738;2023-02-28T07:11:19;26.87;;;14.87;;
9888;SDS011;4983;42.112;24.738;2023-02-28T07:13:47;22.33;;;15.20;;
9888;SDS011;4983;42.112;24.738;2023-02-28T07:16:14;22.23;;;14.20;;
9888;SDS011;4983;42.112;24.738;2023-02-28T07:18:40;34.10;;;14.53;;
9888;SDS011;4983;42.112;24.738;2023-02-28T07:21:11;30.83;;;14.90;;
9888;SDS011;4983;42.112;24.738;2023-02-28T07:23:38;25.80;;;13.27;;
9888;SDS011;4983;42.112;24.738;2023-02-28T07:26:06;17.97;;;14.40;;
9888;SDS011;4983;42.112;24.738;2023-02-28T07:28:33;31.60;;;14.37;;
9888;SDS011;4983;42.112;24.738;2023-02-28T07:31:02;33.20;;;14.43;;
9888;SDS011;4983;42.112;24.738;2023-02-28T07:33:29;23.00;;;13.30;;
9888;SDS011;4983;42.112;24.738;2023-02-28T07:35:59;19.70;;;14.33;;
9888;SDS011;4983;42.112;24.738;2023-02-28T07:38:27;23.53;;;15.50;;
9888;SDS011;4983;42.112;24.738;2023-02-28T07:40:55;21.57;;;15.13;;
9888;SDS011;4983;42.112;24.738;2023-02-28T07:43:22;22.23;;;15.13;;
9888;SDS011;4983;42.112;24.738;2023-02-28T07:45:49;23.43;;;15.80;;
9888;SDS011;4983;42.112;24.738;2023-02-28T07:48:16;26.43;;;15.37;;
9888;SDS011;4983;42.112;24.738;2023-02-28T07:50:42;31.90;;;16.57;;
9888;SDS011;4983;42.112;24.738;2023-02-28T07:53:10;21.97;;;15.17;;
9888;SDS011;4983;42.112;24.738;2023-02-28T07:55:38;41.23;;;18.60;;
9888;SDS011;4983;42.112;24.738;2023-02-28T07:58:04;28.77;;;19.20;;
9888;SDS011;4983;42.112;24.738;2023-02-28T08:00:31;25.30;;;17.80;;
9888;SDS011;4983;42.112;24.738;2023-02-28T08:02:58;26.33;;;18.07;;
9888;SDS011;4983;42.112;24.738;2023-02-28T08:05:26;23.47;;;16.43;;
9888;SDS011;4983;42.112;24.738;2023-02-28T08:07:52;29.13;;;18.00;;
9888;SDS011;4983;42.112;24.738;2023-02-28T08:10:21;25.00;;;16.80;;
9888;SDS011;4983;42.112;24.738;2023-02-28T08:12:49;24.53;;;17.30;;
9888;SDS011;4983;42.112;24.738;2023-02-28T08:15:17;25.43;;;17.37;;
9888;SDS011;4983;42.112;24.738;2023-02-28T08:17:48;30.27;;;18.37;;
9888;SDS011;4983;42.112;24.738;2023-02-28T08:20:14;24.77;;;18.70;;
9888;SDS011;4983;42.112;24.738;2023-02-28T08:22:42;24.53;;;17.23;;
9888;SDS011;4983;42.112;24.738;2023-02-28T08:25:09;30.43;;;17.83;;
9888;SDS011;4983;42.112;24.738;2023-02-28T08:27:36;28.13;;;16.23;;
9888;SDS011;4983;42.112;24.738;2023-02-28T08:30:04;27.63;;;17.23;;
9888;SDS011;4983;42.112;24.738;2023-02-28T08:32:32;36.13;;;17.93;;
9888;SDS011;4983;42.112;24.738;2023-02-28T08:34:59;29.87;;;18.13;;
9888;SDS011;4983;42.112;24.738;2023-02-28T08:37:26;31.97;;;17.87;;
9888;SDS011;4983;42.112;24.738;2023-02-28T08:39:53;45.13;;;19.42;;
9888;SDS011;4983;42.112;24.738;2023-02-28T08:42:20;28.10;;;18.53;;
9888;SDS011;4983;42.112;24.738;2023-02-28T08:44:46;31.77;;;18.87;;
9888;SDS011;4983;42.112;24.738;2023-02-28T08:47:14;33.57;;;20.23;;
9888;SDS011;4983;42.112;24.738;2023-02-28T08:49:41;29.43;;;18.43;;
9888;SDS011;4983;42.112;24.738;2023-02-28T08:52:08;27.30;;;18.07;;
9888;SDS011;4983;42.112;24.738;2023-02-28T08:54:35;29.47;;;18.60;;
9888;SDS011;4983;42.112;24.738;2023-02-28T08:57:02;30.57;;;18.97;;
9888;SDS011;4983;42.112;24.738;2023-02-28T08:59:29;27.40;;;18.70;;
9888;SDS011;4983;42.112;24.738;2023-02-28T09:01:55;31.67;;;19.30;;
9888;SDS011;4983;42.112;24.738;2023-02-28T09:04:23;28.97;;;19.40;;
9888;SDS011;4983;42.112;24.738;2023-02-28T09:06:50;28.37;;;19.90;;
9888;SDS011;4983;42.112;24.738;2023-02-28T09:09:17;62.63;;;23.27;;
9888;SDS011;4983;42.112;24.738;2023-02-28T09:11:44;26.97;;;18.70;;
9888;SDS011;4983;42.112;24.738;2023-02-28T09:14:10;32.27;;;20.33;;
9888;SDS011;4983;42.112;24.738;2023-02-28T09:16:37;32.77;;;20.67;;
9888;SDS011;4983;42.112;24.738;2023-02-28T09:19:04;28.20;;;18.60;;
9888;SDS011;4983;42.112;24.738;2023-02-28T09:21:32;21.30;;;18.77;;
9888;SDS011;4983;42.112;24.738;2023-02-28T09:23:59;24.07;;;20.93;;
9888;SDS011;4983;42.112;24.738;2023-02-28T09:26:26;35.47;;;21.53;;
9888;SDS011;4983;42.112;24.738;2023-02-28T09:28:54;26.20;;;20.73;;
9888;SDS011;4983;42.112;24.738;2023-02-28T09:31:21;32.80;;;22.50;;
9888;SDS011;4983;42.112;24.738;2023-02-28T09:33:48;27.00;;;21.97;;
9888;SDS011;4983;42.112;24.738;2023-02-28T09:36:15;26.73;;;20.93;;
9888;SDS011;4983;42.112;24.738;2023-02-28T09:38:43;28.50;;;22.00;;
9888;SDS011;4983;42.112;24.738;2023-02-28T09:41:12;27.03;;;21.23;;
9888;SDS011;4983;42.112;24.738;2023-02-28T09:43:41;27.10;;;21.70;;
9888;SDS011;4983;42.112;24.738;2023-02-28T09:46:12;28.37;;;21.60;;
9888;SDS011;4983;42.112;24.738;2023-02-28T09:48:41;29.93;;;22.40;;
9888;SDS011;4983;42.112;24.738;2023-02-28T09:51:12;28.97;;;21.17;;
9888;SDS011;4983;42.112;24.738;2023-02-28T09:53:40;27.00;;;21.57;;
9888;SDS011;4983;42.112;24.738;2023-02-28T09:56:09;31.97;;;22.87;;
9888;SDS011;4983;42.112;24.738;2023-02-28T09:58:37;32.87;;;22.60;;
9888;SDS011;4983;42.112;24.738;2023-02-28T10:01:09;27.80;;;21.37;;
9888;SDS011;4983;42.112;24.738;2023-02-28T10:03:39;27.40;;;21.83;;
9888;SDS011;4983;42.112;24.738;2023-02-28T10:06:07;27.27;;;21.87;;
9888;SDS011;4983;42.112;24.738;2023-02-28T10:08:37;57.80;;;23.97;;
9888;SDS011;4983;42.112;24.738;2023-02-28T10:11:09;29.33;;;21.43;;
9888;SDS011;4983;42.112;24.738;2023-02-28T10:13:39;76.77;;;26.57;;
9888;SDS011;4983;42.112;24.738;2023-02-28T10:16:11;30.23;;;23.60;;
9888;SDS011;4983;42.112;24.738;2023-02-28T10:18:41;30.63;;;22.67;;
9888;SDS011;4983;42.112;24.738;2023-02-28T10:21:14;31.83;;;22.83;;
9888;SDS011;4983;42.112;24.738;2023-02-28T10:23:43;34.60;;;23.13;;
9888;SDS011;4983;42.112;24.738;2023-02-28T10:26:14;28.87;;;22.20;;
9888;SDS011;4983;42.112;24.738;2023-02-28T10:28:42;28.33;;;21.53;;
9888;SDS011;4983;42.112;24.738;2023-02-28T10:31:10;30.57;;;22.23;;
9888;SDS011;4983;42.112;24.738;2023-02-28T10:33:38;30.77;;;22.93;;
9888;SDS011;4983;42.112;24.738;2023-02-28T10:36:05;30.13;;;23.07;;
9888;SDS011;4983;42.112;24.738;2023-02-28T10:38:33;34.17;;;24.30;;
9888;SDS011;4983;42.112;24.738;2023-02-28T10:41:04;53.73;;;26.53;;
9888;SDS011;4983;42.112;24.738;2023-02-28T10:43:32;31.23;;;23.73;;
9888;SDS011;4983;42.112;24.738;2023-02-28T10:46:00;32.63;;;24.83;;
9888;SDS011;4983;42.112;24.738;2023-02-28T10:48:34;35.83;;;23.17;;
9888;SDS011;4983;42.112;24.738;2023-02-28T10:51:02;51.23;;;25.67;;
9888;SDS011;4983;42.112;24.738;2023-02-28T10:53:31;29.20;;;22.63;;
9888;SDS011;4983;42.112;24.738;2023-02-28T10:55:59;30.27;;;23.43;;
9888;SDS011;4983;42.112;24.738;2023-02-28T10:58:27;28.50;;;23.43;;
9888;SDS011;4983;42.112;24.738;2023-02-28T11:00:57;36.40;;;24.53;;
9888;SDS011;4983;42.112;24.738;2023-02-28T11:03:28;38.17;;;23.97;;
9888;SDS011;4983;42.112;24.738;2023-02-28T11:05:55;34.23;;;23.67;;
9888;SDS011;4983;42.112;24.738;2023-02-28T11:08:22;38.90;;;24.83;;
9888;SDS011;4983;42.112;24.738;2023-02-28T11:10:55;31.33;;;23.53;;
9888;SDS011;4983;42.112;24.738;2023-02-28T11:13:25;43.00;;;26.03;;
9888;SDS011;4983;42.112;24.738;2023-02-28T11:15:53;76.87;;;29.47;;
9888;SDS011;4983;42.112;24.738;2023-02-28T11:18:24;47.40;;;26.40;;
9888;SDS011;4983;42.112;24.738;2023-02-28T11:20:54;31.90;;;25.43;;
9888;SDS011;4983;42.112;24.738;2023-02-28T11:23:22;29.10;;;24.50;;
9888;SDS011;4983;42.112;24.738;2023-02-28T11:25:52;36.60;;;24.80;;
9888;SDS011;4983;42.112;24.738;2023-02-28T11:28:27;34.30;;;25.43;;
9888;SDS011;4983;42.112;24.738;2023-02-28T11:31:01;78.00;;;29.03;;
9888;SDS011;4983;42.112;24.738;2023-02-28T11:33:32;29.13;;;24.70;;
9888;SDS011;4983;42.112;24.738;2023-02-28T11:36:00;35.97;;;24.47;;
9888;SDS011;4983;42.112;24.738;2023-02-28T11:38:27;32.77;;;24.53;;
9888;SDS011;4983;42.112;24.738;2023-02-28T11:40:59;35.90;;;24.70;;
9888;SDS011;4983;42.112;24.738;2023-02-28T11:43:30;36.80;;;24.70;;
9888;SDS011;4983;42.112;24.738;2023-02-28T11:46:06;32.67;;;25.10;;
9888;SDS011;4983;42.112;24.738;2023-02-28T11:48:42;40.30;;;25.90;;
9888;SDS011;4983;42.112;24.738;2023-02-28T11:51:14;39.70;;;24.77;;
9888;SDS011;4983;42.112;24.738;2023-02-28T11:53:50;40.47;;;28.73;;
9888;SDS011;4983;42.112;24.738;2023-02-28T11:56:23;40.07;;;28.60;;
9888;SDS011;4983;42.112;24.738;2023-02-28T11:58:54;40.37;;;29.10;;
9888;SDS011;4983;42.112;24.738;2023-02-28T12:01:28;37.87;;;28.93;;
9888;SDS011;4983;42.112;24.738;2023-02-28T12:04:10;38.53;;;30.27;;
9888;SDS011;4983;42.112;24.738;2023-02-28T12:06:40;40.40;;;30.40;;
9888;SDS011;4983;42.112;24.738;2023-02-28T12:09:24;41.37;;;31.00;;
9888;SDS011;4983;42.112;24.738;2023-02-28T12:11:58;42.77;;;29.67;;
9888;SDS011;4983;42.112;24.738;2023-02-28T12:14:44;37.03;;;30.07;;
9888;SDS011;4983;42.112;24.738;2023-02-28T12:17:16;36.27;;;30.13;;
9888;SDS011;4983;42.112;24.738;2023-02-28T12:19:48;39.57;;;31.43;;
9888;SDS011;4983;42.112;24.738;2023-02-28T12:22:23;37.50;;;31.13;;
9888;SDS011;4983;42.112;24.738;2023-02-28T12:27:41;37.83;;;31.93;;
9888;SDS011;4983;42.112;24.738;2023-02-28T12:30:13;41.20;;;32.53;;
9888;SDS011;4983;42.112;24.738;2023-02-28T12:32:43;41.70;;;32.53;;
9888;SDS011;4983;42.112;24.738;2023-02-28T12:35:16;37.90;;;30.83;;
9888;SDS011;4983;42.112;24.738;2023-02-28T12:37:44;39.13;;;33.27;;
9888;SDS011;4983;42.112;24.738;2023-02-28T12:40:15;37.93;;;31.83;;
9888;SDS011;4983;42.112;24.738;2023-02-28T12:42:44;43.40;;;32.87;;
9888;SDS011;4983;42.112;24.738;2023-02-28T12:45:13;47.70;;;34.03;;
9888;SDS011;4983;42.112;24.738;2023-02-28T12:47:42;41.53;;;33.10;;
9888;SDS011;4983;42.112;24.738;2023-02-28T12:50:10;45.37;;;32.73;;
9888;SDS011;4983;42.112;24.738;2023-02-28T12:52:39;42.23;;;32.03;;
9888;SDS011;4983;42.112;24.738;2023-02-28T12:55:08;42.57;;;31.30;;
9888;SDS011;4983;42.112;24.738;2023-02-28T12:57:36;40.10;;;33.13;;
9888;SDS011;4983;42.112;24.738;2023-02-28T13:00:10;42.67;;;34.47;;
9888;SDS011;4983;42.112;24.738;2023-02-28T13:02:43;45.30;;;34.83;;
9888;SDS011;4983;42.112;24.738;2023-02-28T13:05:25;41.60;;;32.83;;
9888;SDS011;4983;42.112;24.738;2023-02-28T13:10:39;43.63;;;32.13;;
9888;SDS011;4983;42.112;24.738;2023-02-28T13:13:11;46.17;;;35.47;;
9888;SDS011;4983;42.112;24.738;2023-02-28T13:15:40;49.17;;;34.27;;
9888;SDS011;4983;42.112;24.738;2023-02-28T13:18:23;52.40;;;34.50;;
9888;SDS011;4983;42.112;24.738;2023-02-28T13:20:53;43.10;;;34.10;;
9888;SDS011;4983;42.112;24.738;2023-02-28T13:23:37;51.57;;;36.77;;
9888;SDS011;4983;42.112;24.738;2023-02-28T13:26:05;65.40;;;41.53;;
9888;SDS011;4983;42.112;24.738;2023-02-28T13:34:15;50.17;;;38.03;;
9888;SDS011;4983;42.112;24.738;2023-02-28T13:36:42;48.13;;;37.07;;
9888;SDS011;4983;42.112;24.738;2023-02-28T13:41:55;45.70;;;34.13;;
9888;SDS011;4983;42.112;24.738;2023-02-28T13:44:22;42.17;;;34.73;;
9888;SDS011;4983;42.112;24.738;2023-02-28T13:49:37;42.10;;;31.80;;
9888;SDS011;4983;42.112;24.738;2023-02-28T13:52:06;39.17;;;30.60;;
9888;SDS011;4983;42.112;24.738;2023-02-28T13:54:41;41.90;;;31.77;;
9888;SDS011;4983;42.112;24.738;2023-02-28T13:57:14;46.13;;;37.25;;
9888;SDS011;4983;42.112;24.738;2023-02-28T13:59:47;41.93;;;33.37;;
9888;SDS011;4983;42.112;24.738;2023-02-28T14:02:28;40.73;;;32.53;;
9888;SDS011;4983;42.112;24.738;2023-02-28T14:05:04;43.53;;;31.70;;
9888;SDS011;4983;42.112;24.738;2023-02-28T14:07:32;35.90;;;30.43;;
9888;SDS011;4983;42.112;24.738;2023-02-28T14:10:01;43.43;;;31.50;;
9888;SDS011;4983;42.112;24.738;2023-02-28T14:15:27;31.87;;;28.37;;
9888;SDS011;4983;42.112;24.738;2023-02-28T14:17:55;35.27;;;29.23;;
9888;SDS011;4983;42.112;24.738;2023-02-28T14:20:25;34.97;;;28.27;;
9888;SDS011;4983;42.112;24.738;2023-02-28T14:23:00;34.67;;;28.90;;
9888;SDS011;4983;42.112;24.738;2023-02-28T14:25:30;32.70;;;26.93;;
9888;SDS011;4983;42.112;24.738;2023-02-28T14:28:02;35.00;;;29.13;;
9888;SDS011;4983;42.112;24.738;2023-02-28T14:33:24;32.10;;;26.53;;
9888;SDS011;4983;42.112;24.738;2023-02-28T14:36:12;33.23;;;26.43;;
9888;SDS011;4983;42.112;24.738;2023-02-28T14:38:41;30.57;;;26.97;;
9888;SDS011;4983;42.112;24.738;2023-02-28T14:41:14;28.27;;;25.27;;
9888;SDS011;4983;42.112;24.738;2023-02-28T14:43:47;29.30;;;26.03;;
9888;SDS011;4983;42.112;24.738;2023-02-28T14:46:16;30.63;;;25.73;;
9888;SDS011;4983;42.112;24.738;2023-02-28T14:48:46;29.10;;;25.97;;
9888;SDS011;4983;42.112;24.738;2023-02-28T14:51:17;34.80;;;28.00;;
9888;SDS011;4983;42.112;24.738;2023-02-28T14:53:44;29.67;;;25.43;;
9888;SDS011;4983;42.112;24.738;2023-02-28T14:56:18;32.20;;;26.20;;
9888;SDS011;4983;42.112;24.738;2023-02-28T14:58:50;32.17;;;26.03;;
9888;SDS011;4983;42.112;24.738;2023-02-28T15:01:18;29.67;;;25.70;;
9888;SDS011;4983;42.112;24.738;2023-02-28T15:03:47;29.00;;;25.20;;
9888;SDS011;4983;42.112;24.738;2023-02-28T15:06:15;26.97;;;24.07;;
9888;SDS011;4983;42.112;24.738;2023-02-28T15:08:43;30.20;;;26.50;;
9888;SDS011;4983;42.112;24.738;2023-02-28T15:11:12;29.60;;;23.30;;
9888;SDS011;4983;42.112;24.738;2023-02-28T15:13:40;27.40;;;23.37;;
9888;SDS011;4983;42.112;24.738;2023-02-28T15:16:10;26.57;;;23.70;;